Time;durP1;ratioP1;P1;durP2;ratioP2;P2;SDS_P1;SDS_P2;PMS_P1;PMS_P2;Temp;Humidity;BMP_temperature;BMP_pressure;BME280_temperature;BME280_humidity;BME280_pressure;Samples;Min_cycle;Max_cycle;Signal;HPM_P1;HPM_P2
2023/03/15 07:02:37;;;;;;;;;15.00;11.00;;;;;3.03;74.36;101482.19;6264516;22;45537;-71
2023/03/15 07:05:03;;;;;;;;;11.00;9.25;;;;;3.23;74.71;101508.72;6277345;22;45013;-71
2023/03/15 07:07:29;;;;;;;;;16.75;14.00;;;;;3.47;75.04;101527.66;6277678;22;45260;-70
2023/03/15 07:09:54;;;;;;;;;13.25;12.75;;;;;3.55;75.24;101527.34;6278126;22;45161;-71
2023/03/15 07:12:19;;;;;;;;;17.25;14.75;;;;;3.75;74.65;101535.56;6277722;22;45275;-71
2023/03/15 07:14:45;;;;;;;;;15.75;15.75;;;;;3.87;74.61;101538.06;6277890;22;45073;-71
2023/03/15 07:17:11;;;;;;;;;16.00;12.50;;;;;4.04;75.20;101538.31;6277470;22;45263;-71
2023/03/15 07:19:36;;;;;;;;;12.50;12.25;;;;;4.20;74.91;101531.41;6278137;22;45316;-71
2023/03/15 07:22:02;;;;;;;;;11.25;11.25;;;;;4.45;74.08;101541.66;6275659;22;46026;-71
2023/03/15 07:24:27;;;;;;;;;13.00;11.25;;;;;4.70;74.12;101551.91;6276255;22;46914;-68
2023/03/15 07:26:55;;;;;;;;;21.75;14.50;;;;;4.89;72.53;101548.66;6278138;22;45326;-71
2023/03/15 07:29:20;;;;;;;;;15.00;9.25;;;;;4.99;71.56;101542.28;6278995;22;45467;-71
2023/03/15 07:31:45;;;;;;;;;10.75;9.75;;;;;5.24;72.63;101558.59;6277315;22;45267;-72
2023/03/15 07:34:11;;;;;;;;;12.00;10.50;;;;;5.02;72.11;101495.28;6275799;22;46469;-71
2023/03/15 07:36:36;;;;;;;;;12.75;8.25;;;;;5.56;71.88;101559.53;6277003;22;45148;-73
2023/03/15 07:39:02;;;;;;;;;12.00;11.00;;;;;5.66;71.60;101547.81;6278088;22;45668;-71
2023/03/15 07:41:27;;;;;;;;;9.00;8.50;;;;;5.87;71.01;101562.16;6277768;22;45225;-71
2023/03/15 07:43:53;;;;;;;;;10.00;7.25;;;;;6.07;70.62;101568.53;6278005;22;45148;-71
2023/03/15 07:46:18;;;;;;;;;11.75;7.00;;;;;6.22;70.51;101571.09;6276579;22;45492;-71
2023/03/15 07:48:43;;;;;;;;;7.50;6.50;;;;;6.30;71.08;101550.50;6277894;22;45078;-71
2023/03/15 07:51:09;;;;;;;;;8.00;8.00;;;;;6.46;69.56;101555.75;6277289;22;45078;-72
2023/03/15 07:53:34;;;;;;;;;10.50;10.50;;;;;6.73;68.47;101567.69;6277526;22;45278;-71
2023/03/15 07:56:00;;;;;;;;;8.75;7.00;;;;;6.91;69.10;101573.00;6300956;22;45300;-71
2023/03/15 07:58:25;;;;;;;;;8.00;7.50;;;;;7.08;69.15;101572.97;6277448;22;45248;-71
2023/03/15 08:00:54;;;;;;;;;10.25;8.25;;;;;7.15;68.63;101565.47;6276918;22;45196;-71
2023/03/15 08:03:19;;;;;;;;;12.00;7.75;;;;;7.40;67.70;101579.84;6272633;22;46654;-72
2023/03/15 08:05:44;;;;;;;;;7.25;6.25;;;;;7.45;67.83;101566.91;6276533;22;45277;-71
2023/03/15 08:08:09;;;;;;;;;9.00;7.75;;;;;7.66;67.76;101569.69;6301855;22;45317;-71
2023/03/15 08:10:35;;;;;;;;;11.25;8.25;;;;;7.74;67.26;101577.13;6277361;22;45291;-71
2023/03/15 08:13:00;;;;;;;;;8.00;4.00;;;;;7.93;67.13;101586.81;6277606;22;45267;-71
2023/03/15 08:15:26;;;;;;;;;3.75;3.50;;;;;8.06;66.91;101593.53;6277737;22;45274;-71
2023/03/15 08:17:51;;;;;;;;;10.00;7.00;;;;;8.14;66.76;101599.19;6277355;22;45737;-70
2023/03/15 08:20:17;;;;;;;;;8.00;8.00;;;;;8.20;65.84;101602.09;6276831;22;45687;-71
2023/03/15 08:22:47;;;;;;;;;9.00;8.00;;;;;8.37;66.56;101597.59;6277309;22;45927;-71
2023/03/15 08:25:14;;;;;;;;;11.00;8.00;;;;;8.41;66.13;101604.88;6276778;22;45302;-71
2023/03/15 08:27:43;;;;;;;;;11.00;9.00;;;;;8.51;64.76;101609.72;6275456;22;45231;-71
2023/03/15 08:30:13;;;;;;;;;10.00;9.00;;;;;8.56;65.56;101615.19;6277309;22;45418;-72
2023/03/15 08:32:39;;;;;;;;;12.00;7.50;;;;;8.62;64.96;101613.72;6276575;22;46220;-71
2023/03/15 08:35:06;;;;;;;;;12.00;8.50;;;;;8.80;64.96;101615.41;6277426;22;45247;-71
2023/03/15 08:37:31;;;;;;;;;10.50;7.50;;;;;8.82;64.55;101617.28;6276699;22;45311;-71
2023/03/15 08:40:01;;;;;;;;;10.25;8.00;;;;;8.87;65.24;101618.38;6276404;22;45188;-71
2023/03/15 08:42:26;;;;;;;;;6.50;6.50;;;;;8.91;63.87;101620.34;6275204;22;45463;-71
2023/03/15 08:44:52;;;;;;;;;6.50;5.00;;;;;8.98;63.20;101623.22;6276307;22;44696;-71
2023/03/15 08:47:17;;;;;;;;;5.25;5.25;;;;;8.91;64.59;101611.53;6276419;22;45387;-71
2023/03/15 08:49:42;;;;;;;;;6.00;3.75;;;;;8.92;63.78;101619.47;6276630;22;45307;-70
2023/03/15 08:52:08;;;;;;;;;5.50;4.50;;;;;8.86;63.06;101616.59;6275890;22;55647;-73
2023/03/15 08:54:33;;;;;;;;;3.25;2.75;;;;;8.86;64.97;101627.13;6276595;22;45330;-71
2023/03/15 08:56:58;;;;;;;;;3.00;3.00;;;;;8.69;65.51;101612.31;6276715;22;45263;-70
2023/03/15 08:59:24;;;;;;;;;4.00;4.00;;;;;8.77;64.02;101633.75;6276933;22;45219;-70
2023/03/15 09:01:49;;;;;;;;;5.00;3.00;;;;;8.71;64.37;101615.88;6273102;22;60941;-71
2023/03/15 09:04:14;;;;;;;;;6.50;4.75;;;;;8.84;63.92;101634.06;6274753;22;48536;-70
2023/03/15 09:06:41;;;;;;;;;3.25;3.25;;;;;8.96;64.29;101628.41;6277295;22;45293;-71
